Time;durP1;ratioP1;P1;durP2;ratioP2;P2;SDS_P1;SDS_P2;PMS_P1;PMS_P2;Temp;Humidity;BMP_temperature;BMP_pressure;BME280_temperature;BME280_humidity;BME280_pressure;Samples;Min_cycle;Max_cycle;Signal;HPM_P1;HPM_P2
2021/10/04 00:00:20;;;;;;;2.00;0.60;;;19.00;99.90;;;;;;5061952;28;20086;-70
2021/10/04 00:02:46;;;;;;;1.58;0.50;;;19.00;99.90;;;;;;5059466;28;20488;-70
2021/10/04 00:05:12;;;;;;;1.90;0.52;;;19.00;99.90;;;;;;5057530;28;20051;-71
2021/10/04 00:07:38;;;;;;;1.00;0.40;;;19.00;99.90;;;;;;5057522;28;20024;-71
2021/10/04 00:10:10;;;;;;;3.35;0.68;;;19.00;99.90;;;;;;5059438;28;20416;-69
2021/10/04 00:12:36;;;;;;;1.77;0.60;;;18.90;99.90;;;;;;5056978;28;20027;-71
2021/10/04 00:15:03;;;;;;;1.52;0.80;;;18.90;99.90;;;;;;5057555;28;20104;-70
2021/10/04 00:17:29;;;;;;;2.33;0.80;;;18.90;99.90;;;;;;5057554;28;20112;-69
2021/10/04 00:19:54;;;;;;;2.05;0.70;;;18.90;99.90;;;;;;5059069;28;20038;-70
2021/10/04 00:22:20;;;;;;;3.10;0.90;;;18.90;99.90;;;;;;5058418;28;20028;-69
2021/10/04 00:24:45;;;;;;;1.23;0.70;;;18.90;99.90;;;;;;5057350;28;20025;-68
2021/10/04 00:27:11;;;;;;;1.33;0.70;;;18.90;99.90;;;;;;5058671;28;20020;-69
2021/10/04 00:29:37;;;;;;;0.73;0.50;;;18.90;99.90;;;;;;5057992;28;20044;-69
2021/10/04 00:32:03;;;;;;;1.95;0.75;;;18.90;99.90;;;;;;5060481;28;20479;-70
2021/10/04 00:34:29;;;;;;;1.30;0.70;;;18.90;99.90;;;;;;5058118;28;20033;-70
2021/10/04 00:36:54;;;;;;;1.75;0.70;;;18.90;99.90;;;;;;5056335;28;20028;-70
2021/10/04 00:39:20;;;;;;;1.38;0.60;;;18.90;99.90;;;;;;5057473;28;20024;-70
2021/10/04 00:41:46;;;;;;;1.52;0.50;;;18.90;99.90;;;;;;5058321;28;20040;-70
2021/10/04 00:44:11;;;;;;;1.15;0.65;;;18.80;99.90;;;;;;5056743;28;20024;-69
2021/10/04 00:46:37;;;;;;;1.20;0.60;;;18.80;99.90;;;;;;5058213;28;20109;-71
2021/10/04 00:49:03;;;;;;;1.00;0.40;;;18.90;99.90;;;;;;5057721;28;20107;-69
2021/10/04 00:51:29;;;;;;;2.47;0.63;;;18.80;99.90;;;;;;5057238;28;20108;-71
2021/10/04 00:53:55;;;;;;;1.58;0.70;;;18.80;99.90;;;;;;5057433;28;20100;-71
2021/10/04 00:56:22;;;;;;;3.38;0.73;;;18.80;99.90;;;;;;5056748;28;20035;-71
2021/10/04 00:58:48;;;;;;;1.17;0.63;;;18.80;99.90;;;;;;5059319;28;20025;-72
2021/10/04 01:01:14;;;;;;;2.10;0.70;;;18.80;99.90;;;;;;5057856;28;20636;-70
2021/10/04 01:03:40;;;;;;;2.03;0.73;;;18.80;99.90;;;;;;5056713;28;20020;-72
2021/10/04 01:06:06;;;;;;;2.15;0.68;;;18.80;99.90;;;;;;5056829;28;20028;-72
2021/10/04 01:08:32;;;;;;;1.80;0.68;;;18.80;99.90;;;;;;5057138;28;20077;-73
2021/10/04 01:10:57;;;;;;;1.65;0.50;;;18.80;99.90;;;;;;5057213;28;20469;-68
2021/10/04 01:13:24;;;;;;;1.30;0.68;;;18.80;99.90;;;;;;5057660;28;20039;-73
2021/10/04 01:15:50;;;;;;;1.63;0.50;;;18.80;99.90;;;;;;5055602;28;20476;-71
2021/10/04 01:18:16;;;;;;;1.38;0.50;;;18.70;99.90;;;;;;5058199;28;20040;-71
2021/10/04 01:20:42;;;;;;;1.23;0.52;;;18.70;99.90;;;;;;5057336;28;20496;-71
2021/10/04 01:23:08;;;;;;;1.00;0.57;;;18.70;99.90;;;;;;5060804;28;20044;-71
2021/10/04 01:25:35;;;;;;;1.23;0.47;;;18.70;99.90;;;;;;5057082;28;20039;-72
2021/10/04 01:28:02;;;;;;;1.27;0.52;;;18.70;99.90;;;;;;5057398;28;20029;-71
2021/10/04 01:30:31;;;;;;;0.90;0.50;;;18.70;99.90;;;;;;5055381;28;20056;-71
2021/10/04 01:32:57;;;;;;;1.60;0.80;;;18.70;99.90;;;;;;5056273;28;20029;-72
2021/10/04 01:35:24;;;;;;;1.45;0.65;;;18.70;99.90;;;;;;5057438;28;20380;-71
2021/10/04 01:37:50;;;;;;;4.13;0.82;;;18.70;99.90;;;;;;5058263;28;20024;-72
2021/10/04 01:40:18;;;;;;;1.73;0.65;;;18.70;99.90;;;;;;5056219;28;20360;-71
2021/10/04 01:42:44;;;;;;;0.93;0.47;;;18.70;99.90;;;;;;5056453;28;20021;-69
2021/10/04 01:45:14;;;;;;;3.03;1.00;;;18.60;99.90;;;;;;5057587;28;20025;-67
2021/10/04 01:47:40;;;;;;;1.95;0.70;;;18.60;99.90;;;;;;5057609;28;20064;-69
2021/10/04 01:50:09;;;;;;;2.40;0.40;;;18.60;99.90;;;;;;5056021;28;20064;-71
2021/10/04 01:52:35;;;;;;;1.60;0.47;;;18.60;99.90;;;;;;5056577;28;20082;-71
2021/10/04 01:55:01;;;;;;;1.15;0.50;;;18.60;99.90;;;;;;5056974;28;20017;-72
2021/10/04 01:57:28;;;;;;;0.90;0.50;;;18.60;99.90;;;;;;5056043;28;20048;-70
2021/10/04 01:59:53;;;;;;;1.13;0.45;;;18.60;99.90;;;;;;5056704;28;20029;-72
2021/10/04 02:02:19;;;;;;;1.20;0.60;;;18.60;99.90;;;;;;5058640;28;20155;-71
2021/10/04 02:04:46;;;;;;;2.40;0.52;;;18.60;99.90;;;;;;5056508;28;20378;-72
2021/10/04 02:07:12;;;;;;;1.58;0.47;;;18.60;99.90;;;;;;5056162;28;20103;-72
2021/10/04 02:09:37;;;;;;;1.10;0.50;;;18.60;99.90;;;;;;5058212;28;20047;-72
2021/10/04 02:12:03;;;;;;;1.27;0.50;;;18.50;99.90;;;;;;5055320;28;20033;-72
2021/10/04 02:14:29;;;;;;;1.23;0.55;;;18.50;99.90;;;;;;5054961;28;20032;-72
2021/10/04 02:16:55;;;;;;;0.80;0.50;;;18.50;99.90;;;;;;5058403;28;20024;-72
2021/10/04 02:19:21;;;;;;;1.85;0.57;;;18.50;99.90;;;;;;5057144;28;20072;-71
2021/10/04 02:21:46;;;;;;;0.80;0.40;;;18.50;99.90;;;;;;5056994;28;20040;-71
2021/10/04 02:24:12;;;;;;;1.00;0.50;;;18.50;99.90;;;;;;5056010;28;20464;-71
2021/10/04 02:26:41;;;;;;;1.20;0.50;;;18.50;99.90;;;;;;5053981;28;20040;-70
2021/10/04 02:29:07;;;;;;;1.45;0.50;;;18.50;99.90;;;;;;5056430;28;20051;-71
2021/10/04 02:31:33;;;;;;;0.93;0.50;;;18.50;99.90;;;;;;5057340;28;20029;-71
2021/10/04 02:33:59;;;;;;;1.15;0.60;;;18.50;99.90;;;;;;5056539;28;20026;-71
2021/10/04 02:36:25;;;;;;;1.08;0.50;;;18.50;99.90;;;;;;5055942;28;20021;-71
2021/10/04 02:38:52;;;;;;;1.83;0.50;;;18.50;99.90;;;;;;5056343;28;20027;-70
2021/10/04 02:41:18;;;;;;;1.10;0.60;;;18.50;99.90;;;;;;5056413;28;20119;-72
2021/10/04 02:43:44;;;;;;;0.90;0.60;;;18.50;99.90;;;;;;5056136;28;20135;-72
2021/10/04 02:46:09;;;;;;;5.60;0.85;;;18.40;99.90;;;;;;5056659;28;20505;-71
2021/10/04 02:48:35;;;;;;;1.67;0.57;;;18.50;99.90;;;;;;5056781;28;20795;-71
2021/10/04 02:51:01;;;;;;;0.95;0.47;;;18.50;99.90;;;;;;5055798;28;20349;-71
2021/10/04 02:53:27;;;;;;;1.88;0.40;;;18.40;99.90;;;;;;5057094;28;20021;-70
2021/10/04 02:55:52;;;;;;;1.88;0.70;;;18.40;99.90;;;;;;5055300;28;20040;-71
2021/10/04 02:58:18;;;;;;;1.13;0.50;;;18.40;99.90;;;;;;5056030;28;20051;-69
2021/10/04 03:00:44;;;;;;;2.55;0.98;;;18.40;99.90;;;;;;5055376;28;20060;-71
2021/10/04 03:03:09;;;;;;;1.48;0.52;;;18.40;99.90;;;;;;5054295;28;20036;-71
2021/10/04 03:05:35;;;;;;;1.10;0.40;;;18.50;99.90;;;;;;5054790;28;20036;-71
2021/10/04 03:08:03;;;;;;;0.95;0.40;;;18.50;99.90;;;;;;5057037;28;20025;-71
2021/10/04 03:10:29;;;;;;;1.63;0.70;;;18.40;99.90;;;;;;5056575;28;20090;-71
2021/10/04 03:12:55;;;;;;;0.70;0.50;;;18.40;99.90;;;;;;5055433;28;20028;-71
2021/10/04 03:15:21;;;;;;;1.45;0.50;;;18.40;99.90;;;;;;5056762;28;20059;-72
2021/10/04 03:17:46;;;;;;;1.48;0.57;;;18.40;99.90;;;;;;5058723;28;20087;-72
2021/10/04 03:20:12;;;;;;;1.30;0.50;;;18.40;99.90;;;;;;5059388;28;20028;-70
2021/10/04 03:22:38;;;;;;;1.25;0.43;;;18.40;99.90;;;;;;5057871;28;20033;-71
2021/10/04 03:25:06;;;;;;;1.50;0.50;;;18.40;99.90;;;;;;5060626;28;20031;-68
2021/10/04 03:27:31;;;;;;;0.98;0.45;;;18.40;99.90;;;;;;5059918;28;20107;-70
2021/10/04 03:29:57;;;;;;;1.23;0.60;;;18.40;99.90;;;;;;5059135;28;20464;-70
2021/10/04 03:32:23;;;;;;;0.90;0.43;;;18.40;99.90;;;;;;5059618;28;20040;-71
2021/10/04 03:34:49;;;;;;;0.70;0.47;;;18.30;99.90;;;;;;5058481;28;20116;-72
2021/10/04 03:37:15;;;;;;;0.70;0.50;;;18.30;99.90;;;;;;5058775;28;20047;-71
2021/10/04 03:39:41;;;;;;;1.38;0.30;;;18.40;99.90;;;;;;5057872;28;20733;-71
2021/10/04 03:42:07;;;;;;;1.15;0.40;;;18.30;99.90;;;;;;5058421;28;20013;-71
2021/10/04 03:44:33;;;;;;;1.00;0.50;;;18.40;99.90;;;;;;5060541;28;20031;-71
2021/10/04 03:46:58;;;;;;;1.42;0.30;;;18.30;99.90;;;;;;5058481;28;20443;-71
2021/10/04 03:49:24;;;;;;;1.02;0.40;;;18.30;99.90;;;;;;5059952;28;20086;-70
2021/10/04 03:51:50;;;;;;;1.20;0.40;;;18.30;99.90;;;;;;5057548;28;20021;-71
2021/10/04 03:54:16;;;;;;;0.88;0.50;;;18.30;99.90;;;;;;5057420;28;20048;-69
2021/10/04 03:56:42;;;;;;;0.95;0.50;;;18.30;99.90;;;;;;5057611;28;20020;-71
2021/10/04 03:59:07;;;;;;;3.38;0.60;;;18.30;99.90;;;;;;5062142;28;20045;-71
2021/10/04 04:01:33;;;;;;;1.77;0.43;;;18.30;99.90;;;;;;5057569;28;20047;-72
2021/10/04 04:03:59;;;;;;;1.38;0.52;;;18.30;99.90;;;;;;5058797;28;20036;-71
2021/10/04 04:06:24;;;;;;;1.10;0.45;;;18.30;99.90;;;;;;5059813;28;20032;-72
2021/10/04 04:08:50;;;;;;;1.55;0.47;;;18.30;99.90;;;;;;5057182;28;20053;-72
2021/10/04 04:11:16;;;;;;;1.08;0.40;;;18.30;99.90;;;;;;5058849;28;20024;-71
2021/10/04 04:13:42;;;;;;;1.00;0.50;;;18.30;99.90;;;;;;5058582;28;20029;-72
2021/10/04 04:16:07;;;;;;;1.20;0.50;;;18.30;99.90;;;;;;5059236;28;20036;-72
2021/10/04 04:18:33;;;;;;;1.30;0.50;;;18.30;99.90;;;;;;5058002;28;20033;-71
2021/10/04 04:20:59;;;;;;;1.27;0.60;;;18.20;99.90;;;;;;5057826;28;20046;-70
2021/10/04 04:23:25;;;;;;;1.55;0.60;;;18.30;99.90;;;;;;5057609;28;20106;-71
2021/10/04 04:25:51;;;;;;;1.40;0.50;;;18.20;99.90;;;;;;5055941;28;20028;-72
2021/10/04 04:28:16;;;;;;;1.65;0.50;;;18.30;99.90;;;;;;5057657;28;20551;-71
2021/10/04 04:30:42;;;;;;;0.98;0.40;;;18.20;99.90;;;;;;5056738;28;20104;-71
2021/10/04 04:33:08;;;;;;;1.30;0.35;;;18.20;99.90;;;;;;5057345;28;20499;-72
2021/10/04 04:35:33;;;;;;;1.77;0.30;;;18.20;99.90;;;;;;5058517;28;20661;-71
2021/10/04 04:37:59;;;;;;;0.77;0.40;;;18.20;99.90;;;;;;5056746;28;20048;-68
2021/10/04 04:40:25;;;;;;;0.73;0.40;;;18.20;99.90;;;;;;5057449;28;20394;-70
2021/10/04 04:42:50;;;;;;;0.88;0.32;;;18.20;99.90;;;;;;5057160;28;20040;-70
2021/10/04 04:45:19;;;;;;;1.25;0.60;;;18.10;99.90;;;;;;5056948;28;20028;-68
2021/10/04 04:47:47;;;;;;;0.93;0.60;;;18.20;99.90;;;;;;5057558;28;20044;-69
2021/10/04 04:50:14;;;;;;;0.75;0.40;;;18.10;99.90;;;;;;5056471;28;20045;-70
2021/10/04 04:52:39;;;;;;;1.10;0.55;;;18.10;99.90;;;;;;5057180;28;20116;-71
2021/10/04 04:55:06;;;;;;;0.77;0.40;;;18.10;99.90;;;;;;5056353;28;20103;-70
2021/10/04 04:57:32;;;;;;;1.52;0.50;;;18.10;99.90;;;;;;5057666;28;20488;-70
2021/10/04 04:59:58;;;;;;;1.00;0.50;;;18.10;99.90;;;;;;5056822;28;20070;-71
2021/10/04 05:02:25;;;;;;;0.95;0.43;;;18.10;99.90;;;;;;5056831;28;20362;-71
2021/10/04 05:04:51;;;;;;;2.13;0.45;;;18.10;99.90;;;;;;5056765;28;20151;-71
2021/10/04 05:07:16;;;;;;;1.48;0.50;;;18.10;99.90;;;;;;5056901;28;20108;-71
2021/10/04 05:09:42;;;;;;;1.02;0.43;;;18.10;99.90;;;;;;5057055;28;20041;-67
2021/10/04 05:12:08;;;;;;;1.35;0.35;;;18.00;99.90;;;;;;5057549;28;20472;-69
2021/10/04 05:14:33;;;;;;;0.77;0.28;;;18.00;99.90;;;;;;5057089;28;20028;-69
2021/10/04 05:16:59;;;;;;;1.33;0.52;;;18.00;99.90;;;;;;5056332;28;20035;-69
2021/10/04 05:19:24;;;;;;;0.60;0.32;;;18.00;99.90;;;;;;5057000;28;20044;-70
2021/10/04 05:21:50;;;;;;;1.05;0.52;;;18.00;99.90;;;;;;5055919;28;20083;-71
2021/10/04 05:24:16;;;;;;;1.80;0.68;;;18.00;99.90;;;;;;5060356;28;20036;-73
2021/10/04 05:26:41;;;;;;;1.30;0.50;;;18.00;99.90;;;;;;5055834;28;20060;-71
2021/10/04 05:29:08;;;;;;;1.60;0.50;;;18.00;99.90;;;;;;5056688;28;20063;-70
2021/10/04 05:31:33;;;;;;;1.30;0.50;;;18.10;99.90;;;;;;5051567;28;20029;-71
2021/10/04 05:33:59;;;;;;;0.68;0.40;;;18.10;99.90;;;;;;5055513;28;20043;-68
2021/10/04 05:36:25;;;;;;;1.80;0.40;;;18.10;99.90;;;;;;5056461;28;20021;-69
2021/10/04 05:38:51;;;;;;;7.10;0.70;;;18.10;99.90;;;;;;5055912;28;20028;-71
2021/10/04 05:41:16;;;;;;;2.95;0.50;;;18.10;99.90;;;;;;5056416;28;20104;-68
2021/10/04 05:43:42;;;;;;;3.63;0.40;;;18.10;99.90;;;;;;5056815;28;20029;-69
2021/10/04 05:46:08;;;;;;;1.17;0.50;;;18.00;99.90;;;;;;5063768;28;20032;-72
2021/10/04 05:48:35;;;;;;;2.03;0.50;;;18.00;99.90;;;;;;5056770;28;20539;-76
2021/10/04 05:51:01;;;;;;;2.67;0.52;;;18.00;99.90;;;;;;5062882;28;20112;-70
2021/10/04 05:53:26;;;;;;;0.82;0.47;;;18.00;99.90;;;;;;5052083;28;20523;-69
2021/10/04 05:55:52;;;;;;;2.58;0.47;;;18.00;99.90;;;;;;5071451;28;20111;-72
2021/10/04 05:58:17;;;;;;;2.95;0.60;;;18.00;99.90;;;;;;5071543;28;20027;-71
2021/10/04 06:00:44;;;;;;;0.82;0.40;;;18.00;99.90;;;;;;5053636;28;20027;-70
2021/10/04 06:03:10;;;;;;;1.52;0.55;;;18.00;99.90;;;;;;5062642;28;20108;-71
2021/10/04 06:05:36;;;;;;;3.05;0.63;;;18.00;99.90;;;;;;5069065;28;20448;-65
2021/10/04 06:08:02;;;;;;;1.40;0.50;;;17.90;99.90;;;;;;5051007;28;20029;-69
2021/10/04 06:10:29;;;;;;;1.52;0.52;;;17.90;99.90;;;;;;5057120;28;20526;-69
2021/10/04 06:12:54;;;;;;;2.35;0.57;;;17.90;99.90;;;;;;5071456;28;20033;-70
2021/10/04 06:15:20;;;;;;;3.38;0.60;;;17.90;99.90;;;;;;5071218;28;20495;-70
2021/10/04 06:17:46;;;;;;;1.33;0.50;;;17.90;99.90;;;;;;5061998;28;20090;-66
2021/10/04 06:20:12;;;;;;;2.35;0.60;;;17.90;99.90;;;;;;5050862;28;20546;-71
2021/10/04 06:22:39;;;;;;;1.48;0.50;;;17.80;99.90;;;;;;5050949;28;20025;-72
2021/10/04 06:25:07;;;;;;;0.52;0.30;;;17.80;99.90;;;;;;5050685;28;20036;-67
2021/10/04 06:27:33;;;;;;;2.67;0.35;;;17.80;99.90;;;;;;5052548;28;20025;-70
2021/10/04 06:30:00;;;;;;;0.68;0.40;;;17.80;99.90;;;;;;5053502;28;20388;-71
2021/10/04 06:32:25;;;;;;;2.72;0.60;;;17.80;99.90;;;;;;5070923;28;20035;-71
2021/10/04 06:34:51;;;;;;;2.38;0.50;;;17.80;99.90;;;;;;5069026;28;20028;-73
2021/10/04 06:37:17;;;;;;;1.13;0.52;;;17.90;99.90;;;;;;5070758;28;20021;-65
2021/10/04 06:39:43;;;;;;;1.98;0.43;;;17.80;99.90;;;;;;5070556;28;20115;-75
2021/10/04 06:42:09;;;;;;;1.58;0.57;;;17.90;99.90;;;;;;5068410;28;20099;-76
2021/10/04 06:44:35;;;;;;;0.85;0.47;;;17.80;99.90;;;;;;5055253;28;20028;-70
2021/10/04 06:47:01;;;;;;;1.65;0.50;;;17.80;99.90;;;;;;5070875;28;20031;-71
2021/10/04 06:49:27;;;;;;;1.25;0.45;;;17.80;99.90;;;;;;5070697;28;20086;-71
2021/10/04 06:51:53;;;;;;;3.92;0.65;;;17.90;99.90;;;;;;5074847;28;20016;-70
2021/10/04 06:54:18;;;;;;;0.80;0.40;;;17.80;99.90;;;;;;5074403;28;20058;-71
2021/10/04 06:56:44;;;;;;;3.25;0.68;;;17.90;99.90;;;;;;5055314;28;20477;-69
2021/10/04 06:59:10;;;;;;;2.13;0.73;;;17.80;99.90;;;;;;5055036;28;20030;-69
2021/10/04 07:01:35;;;;;;;4.53;0.88;;;17.80;99.90;;;;;;5061791;28;20036;-69
2021/10/04 07:04:05;;;;;;;3.45;0.80;;;17.70;99.90;;;;;;5054465;28;20018;-67
2021/10/04 07:06:31;;;;;;;3.20;1.08;;;17.60;99.90;;;;;;5053505;28;20025;-67
2021/10/04 07:08:57;;;;;;;4.63;0.88;;;17.60;99.90;;;;;;5053096;28;20036;-68
2021/10/04 07:11:23;;;;;;;3.15;1.00;;;17.50;99.90;;;;;;5053316;28;20009;-69
2021/10/04 07:13:49;;;;;;;3.55;1.10;;;17.50;99.90;;;;;;5052812;28;20036;-69
2021/10/04 07:16:15;;;;;;;2.75;1.15;;;17.50;99.90;;;;;;5053697;28;20473;-66
2021/10/04 07:18:42;;;;;;;4.15;1.38;;;17.50;99.90;;;;;;5051457;28;20488;-69
2021/10/04 07:21:11;;;;;;;4.15;1.42;;;17.50;99.90;;;;;;5053845;28;20488;-70
2021/10/04 07:23:37;;;;;;;2.85;0.90;;;17.50;99.90;;;;;;5053329;28;20025;-71
2021/10/04 07:26:04;;;;;;;7.25;1.15;;;17.50;99.90;;;;;;5053957;28;20039;-67
2021/10/04 07:28:30;;;;;;;2.95;0.98;;;17.50;99.90;;;;;;5053955;28;20020;-71
2021/10/04 07:30:56;;;;;;;2.20;0.90;;;17.50;99.90;;;;;;5053202;28;20362;-71
2021/10/04 07:33:23;;;;;;;3.38;1.00;;;17.50;99.90;;;;;;5054348;28;20021;-74
2021/10/04 07:35:50;;;;;;;2.90;0.95;;;17.60;99.90;;;;;;5057090;28;20025;-72
2021/10/04 07:38:19;;;;;;;4.20;1.30;;;17.60;99.90;;;;;;5053646;28;20028;-72
2021/10/04 07:40:45;;;;;;;2.47;0.73;;;17.60;99.90;;;;;;5053478;28;20055;-70
2021/10/04 07:43:11;;;;;;;4.80;1.23;;;17.70;99.90;;;;;;5054216;28;20381;-75
2021/10/04 07:45:37;;;;;;;2.50;1.20;;;17.70;99.90;;;;;;5054220;28;20017;-77
2021/10/04 07:48:03;;;;;;;6.57;1.05;;;17.70;99.90;;;;;;5072890;28;20028;-75
2021/10/04 07:50:29;;;;;;;3.42;1.10;;;17.80;99.90;;;;;;5073667;28;20042;-72
2021/10/04 07:52:55;;;;;;;2.63;1.00;;;17.80;99.90;;;;;;5073930;28;20091;-74
2021/10/04 07:55:22;;;;;;;1.73;0.82;;;17.90;99.90;;;;;;5073926;28;20375;-72
2021/10/04 07:57:50;;;;;;;2.38;0.80;;;17.90;99.90;;;;;;5073349;28;20472;-70
2021/10/04 08:00:18;;;;;;;2.78;0.93;;;18.00;99.90;;;;;;5073783;28;20024;-71
2021/10/04 08:02:45;;;;;;;3.63;1.02;;;18.00;99.90;;;;;;5054290;28;20036;-72
2021/10/04 08:05:11;;;;;;;2.08;0.95;;;18.10;99.90;;;;;;5062454;28;20056;-71
2021/10/04 08:07:37;;;;;;;4.22;1.10;;;18.10;99.90;;;;;;5073163;28;20496;-70
2021/10/04 08:10:04;;;;;;;5.05;1.02;;;18.10;99.90;;;;;;5073416;28;20037;-72
2021/10/04 08:12:30;;;;;;;4.68;1.20;;;18.20;99.90;;;;;;5065233;28;20021;-68
2021/10/04 08:14:56;;;;;;;2.35;0.77;;;18.20;99.90;;;;;;5052974;28;20461;-73
2021/10/04 08:17:23;;;;;;;2.08;0.98;;;18.30;99.90;;;;;;5063139;28;20488;-70
2021/10/04 08:19:49;;;;;;;3.15;1.00;;;18.30;99.90;;;;;;5054902;28;20071;-72
2021/10/04 08:22:15;;;;;;;2.35;1.00;;;18.40;99.90;;;;;;5051810;28;20021;-74
2021/10/04 08:24:42;;;;;;;3.70;1.23;;;18.40;99.90;;;;;;5053081;28;20028;-73
2021/10/04 08:27:08;;;;;;;2.88;1.00;;;18.40;99.90;;;;;;5053598;28;20059;-70
2021/10/04 08:29:34;;;;;;;3.45;1.17;;;18.50;99.90;;;;;;5057155;28;20064;-73
2021/10/04 08:32:00;;;;;;;1.83;0.82;;;18.50;99.90;;;;;;5062474;28;20076;-70
2021/10/04 08:34:26;;;;;;;3.35;0.88;;;18.60;99.90;;;;;;5052657;28;20025;-73
2021/10/04 08:36:51;;;;;;;3.03;0.95;;;18.60;99.90;;;;;;5053085;28;20465;-71
2021/10/04 08:39:17;;;;;;;3.33;0.93;;;18.60;99.90;;;;;;5053082;28;20033;-71
2021/10/04 08:41:43;;;;;;;2.30;0.95;;;18.70;99.90;;;;;;5052719;28;20028;-71
2021/10/04 08:44:11;;;;;;;2.75;1.02;;;18.70;99.90;;;;;;5052715;28;20029;-68
2021/10/04 08:46:41;;;;;;;3.08;1.17;;;18.80;99.90;;;;;;5054189;28;20065;-68
2021/10/04 08:49:07;;;;;;;2.97;1.00;;;18.80;99.90;;;;;;5032655;28;20033;-73
2021/10/04 08:51:33;;;;;;;2.78;1.10;;;18.90;99.90;;;;;;5045116;28;20021;-71
2021/10/04 08:53:59;;;;;;;2.58;0.88;;;18.90;99.90;;;;;;5052596;28;20021;-71
2021/10/04 08:56:25;;;;;;;2.40;1.00;;;18.90;99.90;;;;;;5052705;28;20170;-74
2021/10/04 08:58:50;;;;;;;2.15;0.80;;;19.00;99.90;;;;;;5056360;28;20437;-72
2021/10/04 09:01:21;;;;;;;3.88;1.10;;;19.00;99.90;;;;;;5067025;28;20025;-74
2021/10/04 09:04:00;;;;;;;2.75;1.05;;;19.10;99.90;;;;;;5052144;28;20036;-70
2021/10/04 09:06:35;;;;;;;2.50;0.93;;;19.10;99.90;;;;;;5052276;28;20064;-76
2021/10/04 09:09:08;;;;;;;1.67;0.60;;;19.20;99.90;;;;;;5052806;28;20024;-75
2021/10/04 09:11:41;;;;;;;2.67;0.90;;;19.20;99.90;;;;;;5055116;28;20048;-77
2021/10/04 09:14:15;;;;;;;1.70;0.80;;;19.20;99.90;;;;;;5063785;28;20481;-73
2021/10/04 09:17:00;;;;;;;3.40;1.05;;;19.30;99.90;;;;;;5051742;28;20032;-73
2021/10/04 09:19:32;;;;;;;2.20;0.90;;;19.30;99.90;;;;;;5049840;28;20047;-74
2021/10/04 09:22:05;;;;;;;2.58;0.82;;;19.40;99.90;;;;;;5051811;28;20021;-72
2021/10/04 09:24:31;;;;;;;3.35;0.85;;;19.40;99.90;;;;;;5051420;28;20017;-73
2021/10/04 09:26:56;;;;;;;2.38;0.80;;;19.40;99.90;;;;;;5051931;28;20078;-70
2021/10/04 09:29:24;;;;;;;3.00;0.65;;;19.50;99.90;;;;;;5052083;28;20470;-72
2021/10/04 09:31:51;;;;;;;2.22;0.60;;;19.50;99.90;;;;;;5051772;28;20032;-73
2021/10/04 09:34:27;;;;;;;3.55;1.02;;;19.50;99.90;;;;;;5051943;28;20017;-71
2021/10/04 09:36:58;;;;;;;2.83;0.70;;;19.60;99.90;;;;;;5051476;28;20031;-72
2021/10/04 09:39:36;;;;;;;2.58;0.82;;;19.60;99.90;;;;;;5051152;28;20025;-72
2021/10/04 09:42:11;;;;;;;2.35;0.77;;;19.60;99.90;;;;;;5048285;28;20032;-73
2021/10/04 09:44:50;;;;;;;2.10;0.88;;;19.70;99.90;;;;;;5082443;28;20033;-73
2021/10/04 09:47:20;;;;;;;3.00;0.75;;;19.70;99.90;;;;;;5052564;28;20124;-75
2021/10/04 09:49:51;;;;;;;2.25;0.68;;;19.80;99.90;;;;;;5051422;28;20041;-72
2021/10/04 09:52:17;;;;;;;1.73;0.75;;;19.80;99.90;;;;;;5051779;28;20024;-73
2021/10/04 09:54:45;;;;;;;10.00;1.17;;;19.80;99.90;;;;;;5060221;28;20028;-70
2021/10/04 09:57:21;;;;;;;3.50;1.00;;;19.90;99.90;;;;;;5052405;28;20028;-67
2021/10/04 09:59:48;;;;;;;2.72;0.70;;;20.10;99.90;;;;;;5051118;28;20167;-67
2021/10/04 10:02:15;;;;;;;3.40;0.80;;;20.10;99.90;;;;;;5059187;28;20017;-67
2021/10/04 10:04:43;;;;;;;2.63;0.98;;;20.00;99.90;;;;;;5061910;28;20476;-66
2021/10/04 10:07:09;;;;;;;2.78;0.88;;;20.00;99.90;;;;;;5050927;28;20098;-69
2021/10/04 10:09:39;;;;;;;4.80;1.00;;;20.00;99.90;;;;;;5064983;28;20484;-69
2021/10/04 10:12:06;;;;;;;6.75;0.80;;;20.00;99.90;;;;;;5063135;28;20488;-68
2021/10/04 10:14:44;;;;;;;1.38;0.77;;;20.00;99.90;;;;;;5050864;28;20021;-69
2021/10/04 10:17:31;;;;;;;3.05;0.65;;;20.00;99.90;;;;;;5050093;28;20499;-70
2021/10/04 10:19:58;;;;;;;3.47;0.73;;;20.10;99.90;;;;;;5053977;28;20383;-69
2021/10/04 10:22:32;;;;;;;2.67;0.77;;;20.00;99.90;;;;;;5052178;28;20347;-69
2021/10/04 10:24:57;;;;;;;3.28;1.00;;;20.00;99.90;;;;;;5052715;28;20384;-69
2021/10/04 10:27:41;;;;;;;2.33;0.90;;;20.00;99.90;;;;;;5066487;28;20031;-69
2021/10/04 10:30:18;;;;;;;1.95;0.77;;;20.00;99.90;;;;;;5054864;28;20128;-69
2021/10/04 10:32:44;;;;;;;4.28;1.10;;;20.00;99.90;;;;;;5054697;28;20025;-69
2021/10/04 10:35:10;;;;;;;2.92;0.90;;;20.10;99.90;;;;;;5054146;28;20094;-69
2021/10/04 10:37:50;;;;;;;1.88;0.82;;;20.10;99.90;;;;;;5065762;28;20025;-69
2021/10/04 10:40:21;;;;;;;2.33;0.75;;;20.10;99.90;;;;;;5054203;28;20032;-69
2021/10/04 10:43:09;;;;;;;2.17;0.82;;;20.10;99.90;;;;;;5058019;28;20036;-69
2021/10/04 10:45:44;;;;;;;2.58;0.70;;;20.10;99.90;;;;;;5054525;28;20500;-68
2021/10/04 10:48:10;;;;;;;1.63;0.80;;;20.10;99.90;;;;;;5055236;28;20167;-68
2021/10/04 10:50:39;;;;;;;1.30;0.50;;;20.10;99.90;;;;;;5065580;28;20040;-66
2021/10/04 10:53:10;;;;;;;2.13;0.63;;;20.20;99.90;;;;;;5055191;28;20025;-68
2021/10/04 10:55:52;;;;;;;3.10;0.98;;;20.10;99.90;;;;;;5057210;28;20039;-68
2021/10/04 10:58:23;;;;;;;4.32;1.60;;;20.10;99.90;;;;;;5045974;28;20029;-69
2021/10/04 11:00:48;;;;;;;3.40;1.30;;;20.10;99.90;;;;;;5054199;28;20017;-68
2021/10/04 11:03:22;;;;;;;4.32;1.27;;;20.10;99.90;;;;;;5074290;28;20082;-69
2021/10/04 11:06:02;;;;;;;2.88;0.90;;;20.10;99.90;;;;;;5074449;28;20036;-68
2021/10/04 11:08:27;;;;;;;2.92;1.00;;;20.10;99.90;;;;;;5074105;28;20087;-68
2021/10/04 11:10:53;;;;;;;2.88;1.00;;;20.10;99.90;;;;;;5074414;28;20039;-68
2021/10/04 11:13:35;;;;;;;4.40;1.23;;;20.10;99.90;;;;;;5074386;28;20099;-69
2021/10/04 11:16:25;;;;;;;2.70;1.02;;;20.20;99.90;;;;;;5072402;28;20054;-68
2021/10/04 11:18:53;;;;;;;4.03;1.15;;;20.20;99.90;;;;;;5054522;28;20028;-68
2021/10/04 11:21:21;;;;;;;3.42;1.10;;;20.20;99.90;;;;;;5059321;28;20024;-68
2021/10/04 11:23:49;;;;;;;2.28;0.90;;;20.20;99.90;;;;;;5073898;28;20024;-68
2021/10/04 11:26:20;;;;;;;3.03;0.95;;;20.20;99.90;;;;;;5073867;28;20033;-68
2021/10/04 11:28:55;;;;;;;3.80;1.02;;;20.20;99.90;;;;;;5073570;28;20605;-68
2021/10/04 11:31:29;;;;;;;3.15;0.93;;;20.20;99.90;;;;;;5073631;28;20024;-68
2021/10/04 11:34:01;;;;;;;;;;;20.30;99.90;;;;;;5058143;28;20035;-68
2021/10/04 11:36:30;;;;;;;3.70;0.77;;;20.30;99.90;;;;;;5054877;28;20356;-68
2021/10/04 11:39:09;;;;;;;3.17;0.90;;;20.30;99.90;;;;;;5058147;28;20068;-71
2021/10/04 11:41:53;;;;;;;3.53;0.82;;;20.40;99.90;;;;;;5053803;28;20507;-72
2021/10/04 11:44:21;;;;;;;;;;;20.40;99.90;;;;;;5066229;28;20086;-70
2021/10/04 11:46:52;;;;;;;2.35;0.80;;;20.40;99.90;;;;;;5053476;28;19909;-71
2021/10/04 11:49:23;;;;;;;2.75;0.88;;;20.50;99.90;;;;;;5053449;28;20033;-70
2021/10/04 11:51:51;;;;;;;2.92;0.90;;;20.50;99.90;;;;;;5059269;28;20060;-68
2021/10/04 11:54:35;;;;;;;3.22;1.00;;;20.50;99.90;;;;;;5033720;28;20091;-68
2021/10/04 11:57:03;;;;;;;2.28;0.90;;;20.50;99.90;;;;;;5033499;28;20026;-66
2021/10/04 11:59:29;;;;;;;4.22;1.00;;;20.60;99.90;;;;;;5035159;28;20420;-68
2021/10/04 12:01:55;;;;;;;2.28;0.90;;;20.60;99.90;;;;;;5063318;28;20029;-67
2021/10/04 12:04:22;;;;;;;2.10;0.68;;;20.60;99.90;;;;;;5053536;28;20027;-71
2021/10/04 12:06:49;;;;;;;2.50;0.95;;;20.60;99.90;;;;;;5055122;28;20031;-71
2021/10/04 12:09:21;;;;;;;3.75;0.90;;;20.60;99.90;;;;;;5052304;28;20051;-67
2021/10/04 12:11:58;;;;;;;2.22;0.98;;;20.70;99.90;;;;;;5052309;28;20033;-72
2021/10/04 12:14:27;;;;;;;2.15;0.77;;;20.70;99.90;;;;;;5052575;28;20105;-69
2021/10/04 12:16:59;;;;;;;3.10;0.85;;;20.70;99.90;;;;;;5054385;28;20025;-69
2021/10/04 12:19:26;;;;;;;2.92;1.02;;;20.70;99.90;;;;;;5052703;28;20353;-71
2021/10/04 12:21:52;;;;;;;3.60;0.90;;;20.80;99.90;;;;;;5061581;28;20032;-72
2021/10/04 12:24:20;;;;;;;4.63;1.15;;;20.80;99.90;;;;;;5052924;28;20021;-72
2021/10/04 12:26:50;;;;;;;3.40;1.00;;;20.80;99.90;;;;;;5052383;28;20040;-67
2021/10/04 12:29:28;;;;;;;3.85;0.90;;;20.80;99.90;;;;;;5053065;28;20047;-71
2021/10/04 12:31:53;;;;;;;2.72;0.80;;;20.80;99.90;;;;;;5053349;28;20021;-72
2021/10/04 12:34:21;;;;;;;1.75;0.60;;;20.80;99.90;;;;;;5052825;28;20025;-71
2021/10/04 12:36:47;;;;;;;2.35;0.85;;;20.90;99.90;;;;;;5052559;28;20128;-71
2021/10/04 12:39:13;;;;;;;2.10;0.80;;;20.90;99.90;;;;;;5052401;28;20028;-69
2021/10/04 12:41:44;;;;;;;2.10;0.73;;;20.90;99.90;;;;;;5052222;28;20025;-70
2021/10/04 12:44:15;;;;;;;1.60;0.73;;;20.90;99.90;;;;;;5052169;28;20028;-67
2021/10/04 12:47:01;;;;;;;2.08;0.70;;;20.90;99.90;;;;;;5055760;28;20028;-68
2021/10/04 12:49:26;;;;;;;2.95;0.73;;;21.00;99.90;;;;;;5051706;28;20020;-69